ASA220 PABR-PANC
Flight info
| Callsign | ASA220 |
|---|---|
| Flight time | N/A |
| Altitude | 37000 |
| Route | KUTDE TKA TAGER9 |
| Aircraft | B739/M-SDE2E3FGHIRWXY/LB1 |
Departure
| Time | 2026-05-09 20:27 |
|---|---|
| Airport | Wiley Post Will Rogers Memorial Airport (PABR) |
Arrival
| Time | N/A |
|---|---|
| Airport | Ted Stevens Anchorage International Airport (PANC) |
| Time | Latitude | Longitude | Altitude | Speed | Heading |
|---|---|---|---|---|---|
| 2026-05-09 20:04 | 71.33468 | -156.65056 | 18 ft | 0 kts | 234° |
| 2026-05-09 20:25 | 71.33471 | -156.65044 | 20 ft | 2 kts | 251° |
| 2026-05-09 20:25 | 71.33471 | -156.64997 | 19 ft | 2 kts | 309° |
| 2026-05-09 20:25 | 71.33473 | -156.64999 | 19 ft | 2 kts | 320° |
| 2026-05-09 20:26 | 71.33492 | -156.65048 | 19 ft | 4 kts | 320° |
| 2026-05-09 20:26 | 71.33501 | -156.65121 | 21 ft | 4 kts | 261° |
| 2026-05-09 20:26 | 71.33499 | -156.65174 | 20 ft | 1 kts | 302° |
| 2026-05-09 20:26 | 71.33511 | -156.65160 | 20 ft | 4 kts | 32° |
| 2026-05-09 20:27 | 71.33550 | -156.65013 | 18 ft | 29 kts | 51° |
| 2026-05-09 20:27 | 71.33887 | -156.63744 | 17 ft | 119 kts | 50° |
| 2026-05-09 20:27 | 71.34547 | -156.61250 | 209 ft | 174 kts | 50° |
| 2026-05-09 20:27 | 71.35378 | -156.58444 | 1352 ft | 181 kts | 39° |
| 2026-05-09 20:28 | 71.36668 | -156.57210 | 1982 ft | 221 kts | 6° |
| 2026-05-09 20:28 | 71.38259 | -156.58334 | 2517 ft | 248 kts | 336° |
| 2026-05-09 20:28 | 71.39751 | -156.61245 | 3331 ft | 257 kts | 332° |
| 2026-05-09 20:29 | 71.41786 | -156.70337 | 5344 ft | 277 kts | 273° |
| 2026-05-09 20:29 | 71.41343 | -156.76199 | 6313 ft | 281 kts | 237° |
| 2026-05-09 20:29 | 71.39960 | -156.80429 | 7196 ft | 281 kts | 204° |
| 2026-05-09 20:29 | 71.38094 | -156.81634 | 8180 ft | 273 kts | 173° |
| 2026-05-09 20:30 | 71.36218 | -156.80723 | 9156 ft | 274 kts | 162° |
| 2026-05-09 20:30 | 71.34358 | -156.79158 | 10107 ft | 279 kts | 160° |
| 2026-05-09 20:30 | 71.33115 | -156.77968 | 10526 ft | 289 kts | 159° |
| 2026-05-09 20:30 | 71.31108 | -156.75928 | 10770 ft | 317 kts | 159° |
| 2026-05-09 20:31 | 71.28165 | -156.72832 | 11103 ft | 349 kts | 158° |
| 2026-05-09 20:31 | 71.26625 | -156.71197 | 11515 ft | 355 kts | 158° |
| 2026-05-09 20:31 | 71.24274 | -156.68701 | 12302 ft | 360 kts | 159° |
| 2026-05-09 20:31 | 71.21898 | -156.66165 | 13145 ft | 363 kts | 158° |
| 2026-05-09 20:32 | 71.19492 | -156.63596 | 13954 ft | 368 kts | 159° |
| 2026-05-09 20:32 | 71.17059 | -156.60994 | 14647 ft | 372 kts | 158° |
| 2026-05-09 20:32 | 71.14625 | -156.58390 | 15365 ft | 376 kts | 158° |
| 2026-05-09 20:32 | 71.12138 | -156.55736 | 16104 ft | 379 kts | 158° |
| 2026-05-09 20:33 | 71.09628 | -156.53066 | 16779 ft | 384 kts | 158° |
| 2026-05-09 20:33 | 71.07079 | -156.50359 | 17443 ft | 389 kts | 158° |
| 2026-05-09 20:33 | 71.04504 | -156.47632 | 18112 ft | 393 kts | 158° |
| 2026-05-09 20:33 | 71.01900 | -156.44882 | 18737 ft | 398 kts | 158° |
| 2026-05-09 20:34 | 70.99259 | -156.42103 | 19336 ft | 402 kts | 158° |
| 2026-05-09 20:34 | 70.96604 | -156.39316 | 19929 ft | 406 kts | 158° |
| 2026-05-09 20:34 | 70.93915 | -156.36502 | 20530 ft | 409 kts | 158° |
| 2026-05-09 20:34 | 70.91244 | -156.33714 | 21106 ft | 413 kts | 158° |
| 2026-05-09 20:35 | 70.88504 | -156.30862 | 21676 ft | 417 kts | 158° |
| 2026-05-09 20:35 | 70.85750 | -156.28004 | 22252 ft | 421 kts | 158° |
| 2026-05-09 20:35 | 70.82963 | -156.25121 | 22812 ft | 425 kts | 158° |
| 2026-05-09 20:35 | 70.80148 | -156.22217 | 23360 ft | 429 kts | 158° |
| 2026-05-09 20:36 | 70.77311 | -156.19298 | 23864 ft | 433 kts | 158° |
| 2026-05-09 20:36 | 70.74447 | -156.16362 | 24303 ft | 436 kts | 158° |
| 2026-05-09 20:36 | 70.71556 | -156.13406 | 24732 ft | 440 kts | 158° |
| 2026-05-09 20:36 | 70.68654 | -156.10447 | 25232 ft | 441 kts | 158° |
| 2026-05-09 20:37 | 70.65731 | -156.07477 | 25689 ft | 444 kts | 158° |
| 2026-05-09 20:37 | 70.62789 | -156.04498 | 26088 ft | 448 kts | 159° |
| 2026-05-09 20:37 | 70.59826 | -156.01507 | 26487 ft | 451 kts | 159° |
| 2026-05-09 20:37 | 70.56832 | -155.98493 | 26883 ft | 455 kts | 159° |
| 2026-05-09 20:38 | 70.53817 | -155.95468 | 27275 ft | 458 kts | 159° |
| 2026-05-09 20:38 | 70.50788 | -155.92438 | 27658 ft | 461 kts | 159° |
| 2026-05-09 20:38 | 70.47731 | -155.89390 | 28037 ft | 464 kts | 159° |
| 2026-05-09 20:38 | 70.44695 | -155.86373 | 28425 ft | 467 kts | 159° |
| 2026-05-09 20:39 | 70.41611 | -155.83318 | 28944 ft | 466 kts | 159° |
| 2026-05-09 20:39 | 70.38530 | -155.80279 | 29551 ft | 464 kts | 159° |
| 2026-05-09 20:39 | 70.35471 | -155.77270 | 30128 ft | 463 kts | 159° |
| 2026-05-09 20:39 | 70.32416 | -155.74266 | 30714 ft | 457 kts | 160° |
| 2026-05-09 20:40 | 70.29436 | -155.71343 | 31619 ft | 446 kts | 159° |
| 2026-05-09 20:40 | 70.26487 | -155.68477 | 31972 ft | 448 kts | 160° |
| 2026-05-09 20:40 | 70.23497 | -155.65573 | 32115 ft | 455 kts | 160° |
| 2026-05-09 20:40 | 70.20488 | -155.62654 | 32438 ft | 456 kts | 160° |
| 2026-05-09 20:41 | 70.17472 | -155.59742 | 32860 ft | 456 kts | 160° |
| 2026-05-09 20:41 | 70.14496 | -155.56861 | 33189 ft | 456 kts | 160° |
| 2026-05-09 20:41 | 70.11478 | -155.53959 | 33532 ft | 458 kts | 160° |
| 2026-05-09 20:41 | 70.08446 | -155.51064 | 33857 ft | 459 kts | 160° |
| 2026-05-09 20:42 | 70.05401 | -155.48161 | 34176 ft | 460 kts | 159° |
| 2026-05-09 20:42 | 70.02357 | -155.45268 | 34488 ft | 459 kts | 159° |
| 2026-05-09 20:42 | 69.99325 | -155.42378 | 34804 ft | 459 kts | 160° |
| 2026-05-09 20:42 | 69.96280 | -155.39498 | 35093 ft | 459 kts | 160° |
| 2026-05-09 20:43 | 69.93229 | -155.36627 | 35363 ft | 460 kts | 160° |
| 2026-05-09 20:43 | 69.90192 | -155.33769 | 35650 ft | 459 kts | 160° |
| 2026-05-09 20:43 | 69.87147 | -155.30910 | 35941 ft | 459 kts | 160° |
| 2026-05-09 20:43 | 69.84146 | -155.28100 | 36259 ft | 458 kts | 161° |
| 2026-05-09 20:44 | 69.81090 | -155.25254 | 36703 ft | 454 kts | 161° |
| 2026-05-09 20:44 | 69.78079 | -155.22453 | 37023 ft | 453 kts | 161° |
| 2026-05-09 20:44 | 69.72098 | -155.16931 | 37087 ft | 456 kts | 161° |
| 2026-05-09 20:45 | 69.66028 | -155.11369 | 37080 ft | 458 kts | 160° |
| 2026-05-09 20:45 | 69.59952 | -155.05805 | 37077 ft | 458 kts | 160° |
| 2026-05-09 20:46 | 69.53881 | -155.00269 | 37071 ft | 458 kts | 161° |
| 2026-05-09 20:46 | 69.47812 | -154.94805 | 37062 ft | 457 kts | 161° |
| 2026-05-09 20:47 | 69.41742 | -154.89368 | 37073 ft | 457 kts | 161° |
| 2026-05-09 20:47 | 69.35678 | -154.83957 | 37070 ft | 456 kts | 161° |
| 2026-05-09 20:48 | 69.29640 | -154.78590 | 37043 ft | 452 kts | 161° |
| 2026-05-09 20:48 | 69.23657 | -154.73322 | 37041 ft | 448 kts | 161° |
| 2026-05-09 20:49 | 69.17749 | -154.68142 | 37062 ft | 448 kts | 162° |
| 2026-05-09 20:49 | 69.11768 | -154.62917 | 37048 ft | 453 kts | 162° |
| 2026-05-09 20:50 | 69.05722 | -154.57686 | 37029 ft | 455 kts | 161° |
| 2026-05-09 20:50 | 68.99666 | -154.52466 | 37031 ft | 455 kts | 162° |
| 2026-05-09 20:51 | 68.93635 | -154.47301 | 37016 ft | 451 kts | 161° |
| 2026-05-09 20:51 | 68.87662 | -154.42203 | 37019 ft | 447 kts | 162° |
| 2026-05-09 20:52 | 68.81762 | -154.37203 | 37015 ft | 445 kts | 162° |
| 2026-05-09 20:52 | 68.75851 | -154.32228 | 37004 ft | 443 kts | 162° |
| 2026-05-09 20:53 | 68.69952 | -154.27281 | 37010 ft | 444 kts | 162° |
| 2026-05-09 20:53 | 68.64008 | -154.22327 | 37006 ft | 448 kts | 162° |
| 2026-05-09 20:54 | 68.58018 | -154.17371 | 36987 ft | 451 kts | 162° |
| 2026-05-09 20:54 | 68.51992 | -154.12409 | 36989 ft | 453 kts | 162° |
| 2026-05-09 20:55 | 68.45945 | -154.07447 | 36959 ft | 454 kts | 162° |
| 2026-05-09 20:55 | 68.39896 | -154.02517 | 36935 ft | 453 kts | 162° |
| 2026-05-09 20:56 | 68.30987 | -153.95327 | 36899 ft | 441 kts | 162° |
| 2026-05-09 20:57 | 68.25123 | -153.90606 | 36913 ft | 441 kts | 162° |
| 2026-05-09 20:57 | 68.19221 | -153.85879 | 36902 ft | 445 kts | 162° |
| 2026-05-09 20:58 | 68.13238 | -153.81119 | 36883 ft | 449 kts | 162° |
| 2026-05-09 20:58 | 68.07218 | -153.76355 | 36869 ft | 453 kts | 162° |
| 2026-05-09 20:59 | 68.01153 | -153.71590 | 36864 ft | 455 kts | 162° |
| 2026-05-09 20:59 | 67.95068 | -153.66833 | 36818 ft | 455 kts | 162° |
| 2026-05-09 21:00 | 67.86007 | -153.59795 | 36818 ft | 452 kts | 163° |
| 2026-05-09 21:00 | 67.79976 | -153.55139 | 36789 ft | 451 kts | 163° |
| 2026-05-09 21:01 | 67.73963 | -153.50526 | 36787 ft | 449 kts | 163° |
| 2026-05-09 21:02 | 67.64985 | -153.43677 | 36806 ft | 447 kts | 163° |
| 2026-05-09 21:02 | 67.59005 | -153.39149 | 36766 ft | 447 kts | 163° |
| 2026-05-09 21:03 | 67.53029 | -153.34647 | 36764 ft | 446 kts | 163° |
| 2026-05-09 21:03 | 67.47062 | -153.30176 | 36765 ft | 446 kts | 163° |
| 2026-05-09 21:04 | 67.41100 | -153.25729 | 36734 ft | 445 kts | 163° |
| 2026-05-09 21:04 | 67.35144 | -153.21312 | 36740 ft | 444 kts | 163° |
| 2026-05-09 21:05 | 67.29214 | -153.16939 | 36740 ft | 442 kts | 163° |
| 2026-05-09 21:05 | 67.23336 | -153.12622 | 36728 ft | 442 kts | 163° |
| 2026-05-09 21:06 | 67.17411 | -153.08293 | 36716 ft | 443 kts | 163° |
| 2026-05-09 21:06 | 67.11474 | -153.03979 | 36712 ft | 444 kts | 163° |
| 2026-05-09 21:07 | 67.05521 | -152.99674 | 36706 ft | 445 kts | 163° |
| 2026-05-09 21:07 | 66.99545 | -152.95375 | 36714 ft | 447 kts | 163° |
| 2026-05-09 21:08 | 66.93583 | -152.91108 | 36692 ft | 448 kts | 163° |
| 2026-05-09 21:08 | 66.87575 | -152.86832 | 36708 ft | 448 kts | 163° |
| 2026-05-09 21:09 | 66.81561 | -152.82572 | 36698 ft | 448 kts | 163° |
| 2026-05-09 21:09 | 66.75555 | -152.78339 | 36681 ft | 446 kts | 163° |
| 2026-05-09 21:10 | 66.69618 | -152.74176 | 36683 ft | 445 kts | 163° |
| 2026-05-09 21:10 | 66.63656 | -152.70016 | 36685 ft | 444 kts | 163° |
| 2026-05-09 21:11 | 66.57709 | -152.65887 | 36683 ft | 443 kts | 163° |
| 2026-05-09 21:12 | 66.42873 | -152.55673 | 36680 ft | 442 kts | 163° |
| 2026-05-09 21:12 | 66.36938 | -152.51621 | 36676 ft | 441 kts | 163° |
| 2026-05-09 21:13 | 66.31001 | -152.47586 | 36675 ft | 442 kts | 163° |
| 2026-05-09 21:13 | 66.25064 | -152.43527 | 36655 ft | 443 kts | 163° |
| 2026-05-09 21:14 | 66.19121 | -152.39464 | 36653 ft | 443 kts | 163° |
| 2026-05-09 21:14 | 66.13188 | -152.35429 | 36650 ft | 442 kts | 163° |
| 2026-05-09 21:15 | 66.07305 | -152.31450 | 36645 ft | 441 kts | 163° |
| 2026-05-09 21:15 | 66.01394 | -152.27473 | 36643 ft | 440 kts | 163° |
| 2026-05-09 21:16 | 65.95489 | -152.23519 | 36620 ft | 440 kts | 163° |
| 2026-05-09 21:16 | 65.89579 | -152.19581 | 36623 ft | 440 kts | 164° |
| 2026-05-09 21:17 | 65.83670 | -152.15662 | 36625 ft | 440 kts | 163° |
| 2026-05-09 21:17 | 65.77747 | -152.11753 | 36630 ft | 441 kts | 164° |
| 2026-05-09 21:18 | 65.71822 | -152.07861 | 36613 ft | 441 kts | 164° |
| 2026-05-09 21:18 | 65.66886 | -152.04633 | 36618 ft | 441 kts | 164° |
| 2026-05-09 21:19 | 65.55019 | -151.96923 | 36598 ft | 443 kts | 164° |
| 2026-05-09 21:20 | 65.49065 | -151.93083 | 36599 ft | 443 kts | 164° |
| 2026-05-09 21:20 | 65.43104 | -151.89256 | 36572 ft | 443 kts | 164° |
| 2026-05-09 21:21 | 65.37146 | -151.85449 | 36576 ft | 443 kts | 164° |
| 2026-05-09 21:21 | 65.31183 | -151.81657 | 36569 ft | 443 kts | 164° |
| 2026-05-09 21:22 | 65.25234 | -151.77891 | 36558 ft | 443 kts | 164° |
| 2026-05-09 21:22 | 65.19281 | -151.74140 | 36575 ft | 443 kts | 164° |
| 2026-05-09 21:23 | 65.13319 | -151.70401 | 36553 ft | 443 kts | 164° |
| 2026-05-09 21:23 | 65.07398 | -151.66705 | 36545 ft | 442 kts | 164° |
| 2026-05-09 21:24 | 65.01448 | -151.63008 | 36542 ft | 441 kts | 164° |
| 2026-05-09 21:24 | 64.95519 | -151.59340 | 36536 ft | 440 kts | 164° |
| 2026-05-09 21:25 | 64.89593 | -151.55691 | 36537 ft | 440 kts | 164° |
| 2026-05-09 21:25 | 64.83669 | -151.52060 | 36538 ft | 439 kts | 164° |
| 2026-05-09 21:26 | 64.77818 | -151.48491 | 36523 ft | 439 kts | 165° |
| 2026-05-09 21:26 | 64.71900 | -151.44896 | 36521 ft | 440 kts | 165° |
| 2026-05-09 21:27 | 64.65980 | -151.41316 | 36521 ft | 440 kts | 165° |
| 2026-05-09 21:27 | 64.64015 | -151.40131 | 36498 ft | 440 kts | 165° |
| 2026-05-09 21:29 | 64.42447 | -151.27245 | 36486 ft | 441 kts | 165° |
| 2026-05-09 21:29 | 64.36484 | -151.23719 | 36496 ft | 441 kts | 165° |
| 2026-05-09 21:30 | 64.30560 | -151.20231 | 36481 ft | 442 kts | 165° |
| 2026-05-09 21:30 | 64.24607 | -151.16742 | 36480 ft | 442 kts | 165° |
| 2026-05-09 21:31 | 64.18641 | -151.13261 | 36456 ft | 442 kts | 165° |
| 2026-05-09 21:31 | 64.12678 | -151.09797 | 36467 ft | 442 kts | 165° |
| 2026-05-09 21:32 | 64.06727 | -151.06356 | 36461 ft | 442 kts | 165° |
| 2026-05-09 21:32 | 64.00760 | -151.02921 | 36459 ft | 442 kts | 165° |
| 2026-05-09 21:33 | 63.94792 | -150.99500 | 36455 ft | 442 kts | 165° |
| 2026-05-09 21:33 | 63.88829 | -150.96096 | 36448 ft | 442 kts | 165° |
| 2026-05-09 21:34 | 63.82863 | -150.92706 | 36443 ft | 442 kts | 165° |
| 2026-05-09 21:34 | 63.76903 | -150.89334 | 36442 ft | 441 kts | 165° |
| 2026-05-09 21:35 | 63.70979 | -150.85998 | 36435 ft | 441 kts | 165° |
| 2026-05-09 21:35 | 63.65016 | -150.82652 | 36440 ft | 442 kts | 165° |
| 2026-05-09 21:36 | 63.59036 | -150.79313 | 36460 ft | 443 kts | 166° |
| 2026-05-09 21:36 | 63.53042 | -150.75982 | 36446 ft | 444 kts | 166° |
| 2026-05-09 21:37 | 63.47029 | -150.72652 | 36435 ft | 445 kts | 166° |
| 2026-05-09 21:37 | 63.41017 | -150.69337 | 36441 ft | 445 kts | 166° |
| 2026-05-09 21:38 | 63.34994 | -150.66032 | 36457 ft | 445 kts | 166° |
| 2026-05-09 21:38 | 63.28974 | -150.62741 | 36438 ft | 445 kts | 166° |
| 2026-05-09 21:39 | 63.22967 | -150.59473 | 36453 ft | 444 kts | 166° |
| 2026-05-09 21:39 | 63.17012 | -150.56247 | 36471 ft | 443 kts | 166° |
| 2026-05-09 21:40 | 63.11033 | -150.53023 | 36477 ft | 442 kts | 166° |
| 2026-05-09 21:40 | 63.05056 | -150.49810 | 36459 ft | 442 kts | 166° |
| 2026-05-09 21:41 | 62.99082 | -150.46614 | 36468 ft | 442 kts | 166° |
| 2026-05-09 21:41 | 62.93106 | -150.43429 | 36483 ft | 441 kts | 166° |
| 2026-05-09 21:42 | 62.87132 | -150.40250 | 36469 ft | 442 kts | 166° |
| 2026-05-09 21:42 | 62.81160 | -150.37100 | 36458 ft | 442 kts | 166° |
| 2026-05-09 21:43 | 62.78163 | -150.35525 | 36292 ft | 445 kts | 166° |
| 2026-05-09 21:43 | 62.75129 | -150.33933 | 35688 ft | 449 kts | 166° |
| 2026-05-09 21:43 | 62.72096 | -150.32343 | 35046 ft | 446 kts | 166° |
| 2026-05-09 21:43 | 62.69078 | -150.30764 | 34332 ft | 445 kts | 166° |
| 2026-05-09 21:44 | 62.66073 | -150.29194 | 33589 ft | 445 kts | 166° |
| 2026-05-09 21:44 | 62.63055 | -150.27621 | 32676 ft | 445 kts | 166° |
| 2026-05-09 21:44 | 62.60058 | -150.26062 | 31836 ft | 442 kts | 166° |
| 2026-05-09 21:44 | 62.57111 | -150.24533 | 31106 ft | 437 kts | 166° |
| 2026-05-09 21:45 | 62.54183 | -150.23017 | 30559 ft | 429 kts | 166° |
| 2026-05-09 21:45 | 62.51269 | -150.21511 | 29985 ft | 421 kts | 166° |
| 2026-05-09 21:45 | 62.48447 | -150.20055 | 29427 ft | 414 kts | 166° |
| 2026-05-09 21:45 | 62.45663 | -150.18621 | 28811 ft | 407 kts | 166° |
| 2026-05-09 21:46 | 62.42976 | -150.17240 | 28290 ft | 398 kts | 166° |
| 2026-05-09 21:46 | 62.40302 | -150.15867 | 27741 ft | 391 kts | 166° |
| 2026-05-09 21:46 | 62.37675 | -150.14521 | 27223 ft | 385 kts | 166° |
| 2026-05-09 21:46 | 62.35086 | -150.13197 | 26721 ft | 379 kts | 166° |
| 2026-05-09 21:47 | 62.32526 | -150.11953 | 26196 ft | 374 kts | 169° |
| 2026-05-09 21:47 | 62.29945 | -150.11548 | 25701 ft | 372 kts | 179° |
| 2026-05-09 21:47 | 62.27370 | -150.11972 | 25257 ft | 371 kts | 187° |
| 2026-05-09 21:47 | 62.24826 | -150.13226 | 24770 ft | 380 kts | 192° |
| 2026-05-09 21:48 | 62.22239 | -150.14733 | 24265 ft | 390 kts | 193° |
| 2026-05-09 21:48 | 62.19623 | -150.16284 | 23733 ft | 389 kts | 193° |
| 2026-05-09 21:48 | 62.17031 | -150.17820 | 23217 ft | 383 kts | 193° |
| 2026-05-09 21:48 | 62.14472 | -150.19322 | 22650 ft | 379 kts | 193° |
| 2026-05-09 21:49 | 62.11945 | -150.20792 | 22114 ft | 373 kts | 193° |
| 2026-05-09 21:49 | 62.09495 | -150.22207 | 21629 ft | 366 kts | 193° |
| 2026-05-09 21:49 | 62.07053 | -150.23610 | 21151 ft | 360 kts | 193° |
| 2026-05-09 21:49 | 62.04647 | -150.24986 | 20677 ft | 355 kts | 192° |
| 2026-05-09 21:50 | 62.02276 | -150.26339 | 20216 ft | 349 kts | 192° |
| 2026-05-09 21:50 | 61.99948 | -150.27665 | 19760 ft | 344 kts | 192° |
| 2026-05-09 21:50 | 61.95366 | -150.30268 | 18864 ft | 336 kts | 192° |
| 2026-05-09 21:51 | 61.93123 | -150.31538 | 18395 ft | 332 kts | 192° |
| 2026-05-09 21:51 | 61.90908 | -150.32791 | 17950 ft | 327 kts | 192° |
| 2026-05-09 21:51 | 61.88723 | -150.34027 | 17494 ft | 323 kts | 192° |
| 2026-05-09 21:51 | 61.86569 | -150.35242 | 17048 ft | 318 kts | 192° |
| 2026-05-09 21:52 | 61.84447 | -150.36438 | 16625 ft | 312 kts | 192° |
| 2026-05-09 21:52 | 61.82359 | -150.37613 | 16199 ft | 310 kts | 192° |
| 2026-05-09 21:52 | 61.80283 | -150.38778 | 15789 ft | 309 kts | 192° |
| 2026-05-09 21:52 | 61.78191 | -150.39950 | 15376 ft | 315 kts | 192° |
| 2026-05-09 21:53 | 61.76038 | -150.41155 | 14941 ft | 323 kts | 192° |
| 2026-05-09 21:53 | 61.73867 | -150.42370 | 14480 ft | 321 kts | 192° |
| 2026-05-09 21:53 | 61.71725 | -150.43569 | 14045 ft | 316 kts | 192° |
| 2026-05-09 21:54 | 61.67513 | -150.45186 | 13199 ft | 301 kts | 173° |
| 2026-05-09 21:54 | 61.65503 | -150.44265 | 12885 ft | 292 kts | 160° |
| 2026-05-09 21:54 | 61.63660 | -150.42582 | 12514 ft | 288 kts | 155° |
| 2026-05-09 21:54 | 61.61857 | -150.40753 | 12106 ft | 287 kts | 154° |
| 2026-05-09 21:55 | 61.60049 | -150.38891 | 11708 ft | 292 kts | 154° |
| 2026-05-09 21:55 | 61.58527 | -150.37330 | 11350 ft | 298 kts | 154° |
| 2026-05-09 21:55 | 61.56673 | -150.35440 | 10920 ft | 296 kts | 154° |
| 2026-05-09 21:55 | 61.54833 | -150.33578 | 10517 ft | 290 kts | 154° |
| 2026-05-09 21:56 | 61.53027 | -150.31761 | 10103 ft | 286 kts | 154° |
| 2026-05-09 21:56 | 61.51275 | -150.30005 | 10000 ft | 272 kts | 154° |
| 2026-05-09 21:56 | 61.49600 | -150.28331 | 9860 ft | 262 kts | 154° |
| 2026-05-09 21:56 | 61.47976 | -150.26711 | 9744 ft | 256 kts | 154° |
| 2026-05-09 21:57 | 61.46379 | -150.25121 | 9641 ft | 253 kts | 154° |
| 2026-05-09 21:57 | 61.44835 | -150.23587 | 9542 ft | 244 kts | 154° |
| 2026-05-09 21:57 | 61.43337 | -150.22100 | 9428 ft | 235 kts | 154° |
| 2026-05-09 21:57 | 61.41869 | -150.20646 | 9144 ft | 232 kts | 154° |
| 2026-05-09 21:58 | 61.40175 | -150.18969 | 8781 ft | 231 kts | 154° |
| 2026-05-09 21:58 | 61.38733 | -150.17544 | 8489 ft | 229 kts | 153° |
| 2026-05-09 21:58 | 61.37299 | -150.16125 | 8233 ft | 226 kts | 153° |
| 2026-05-09 21:58 | 61.35883 | -150.14728 | 7964 ft | 224 kts | 153° |